createdAt,value
2023-05-10T00:02:23.999Z,91587.06
2023-05-10T00:04:50.647Z,91592.28
2023-05-10T00:07:18.640Z,91585.78
2023-05-10T00:09:45.458Z,91587.63
2023-05-10T00:12:12.108Z,91580.56
2023-05-10T00:14:38.802Z,91584.03
2023-05-10T00:17:05.590Z,91581.66
2023-05-10T00:19:32.360Z,91580.22
2023-05-10T00:21:59.046Z,91579.41
2023-05-10T00:24:26.197Z,91582.00
2023-05-10T00:26:52.843Z,91574.66
2023-05-10T00:29:19.591Z,91580.56
2023-05-10T00:31:46.247Z,91578.19
2023-05-10T00:34:13.182Z,91574.72
2023-05-10T00:36:39.923Z,91574.31
2023-05-10T00:39:07.164Z,91578.63
2023-05-10T00:41:33.860Z,91575.41
2023-05-10T00:44:00.649Z,91579.41
2023-05-10T00:46:28.040Z,91580.25
2023-05-10T00:48:55.093Z,91574.22
2023-05-10T00:51:22.074Z,91576.09
2023-05-10T00:53:50.188Z,91578.69
2023-05-10T00:56:17.348Z,91570.31
2023-05-10T00:58:44.379Z,91572.34
2023-05-10T01:01:11.906Z,91567.72
2023-05-10T01:03:40.423Z,91575.66
2023-05-10T01:06:07.379Z,91569.22
2023-05-10T01:08:34.883Z,91573.56
2023-05-10T01:11:01.842Z,91569.28
2023-05-10T01:13:38.407Z,91566.94
2023-05-10T01:16:06.024Z,91569.94
2023-05-10T01:18:36.185Z,91573.81
2023-05-10T01:21:20.988Z,91566.28
2023-05-10T01:23:59.595Z,91565.56
2023-05-10T01:27:04.351Z,91568.19
2023-05-10T01:29:53.404Z,91570.38
2023-05-10T01:32:27.546Z,91560.16
2023-05-10T01:35:09.384Z,91550.84
2023-05-10T01:37:46.429Z,91553.41
2023-05-10T01:40:26.632Z,91556.53
2023-05-10T01:43:01.008Z,91554.75
2023-05-10T01:45:42.648Z,91561.94
2023-05-10T01:48:15.152Z,91561.22
2023-05-10T01:50:45.905Z,91558.91
2023-05-10T01:53:14.782Z,91550.22
2023-05-10T01:55:48.001Z,91554.19
2023-05-10T01:58:20.003Z,91557.66
2023-05-10T02:00:50.668Z,91554.63
2023-05-10T02:03:22.254Z,91551.25
2023-05-10T02:05:51.753Z,91561.38
2023-05-10T02:08:20.119Z,91559.88
2023-05-10T02:10:48.114Z,91553.88
2023-05-10T02:13:17.307Z,91554.47
2023-05-10T02:15:50.701Z,91551.00
2023-05-10T02:18:19.068Z,91556.50
2023-05-10T02:20:48.135Z,91561.69
2023-05-10T02:23:17.648Z,91551.88
2023-05-10T02:25:46.931Z,91547.88
2023-05-10T02:28:15.402Z,91555.09
2023-05-10T02:30:42.660Z,91558.03
2023-05-10T02:33:09.816Z,91552.75
2023-05-10T02:35:38.330Z,91562.31
2023-05-10T02:38:06.310Z,91550.56
2023-05-10T02:40:34.938Z,91549.38
2023-05-10T02:43:03.559Z,91542.50
2023-05-10T02:45:32.294Z,91543.84
2023-05-10T02:47:59.892Z,91545.25
2023-05-10T02:50:29.136Z,91541.16
2023-05-10T02:53:02.725Z,91541.84
2023-05-10T02:55:34.010Z,91544.97
2023-05-10T02:58:02.541Z,91541.59
2023-05-10T03:00:29.798Z,91538.34
2023-05-10T03:02:56.762Z,91530.38
2023-05-10T03:05:23.510Z,91539.38
2023-05-10T03:07:51.017Z,91541.97
2023-05-10T03:10:19.538Z,91550.75
2023-05-10T03:12:52.574Z,91545.53
2023-05-10T03:15:31.890Z,91548.00
2023-05-10T03:18:07.892Z,91552.44
2023-05-10T03:20:40.298Z,91551.88
2023-05-10T03:23:27.328Z,91550.19
2023-05-10T03:25:54.680Z,91554.19
2023-05-10T03:28:22.734Z,91550.84
2023-05-10T03:30:51.239Z,91546.66
2023-05-10T03:33:18.035Z,91554.34
2023-05-10T03:35:46.769Z,91549.22
2023-05-10T03:38:13.908Z,91553.22
2023-05-10T03:40:40.788Z,91565.41
2023-05-10T03:43:07.480Z,91562.19
2023-05-10T03:45:34.241Z,91578.97
2023-05-10T03:48:00.981Z,91576.53
2023-05-10T03:50:27.873Z,91573.81
2023-05-10T03:52:54.931Z,91581.84
2023-05-10T03:55:21.772Z,91575.31
2023-05-10T03:57:50.621Z,91574.25
2023-05-10T04:00:17.834Z,91572.28
2023-05-10T04:02:46.001Z,91578.75
2023-05-10T04:05:13.658Z,91580.78
2023-05-10T04:07:40.749Z,91579.19
2023-05-10T04:10:08.795Z,91582.41
2023-05-10T04:12:38.082Z,91579.09
2023-05-10T04:15:05.624Z,91585.09
2023-05-10T04:17:33.360Z,91581.63
2023-05-10T04:20:00.223Z,91585.34
2023-05-10T04:22:27.013Z,91575.19
2023-05-10T04:24:53.622Z,91583.50
2023-05-10T04:27:20.290Z,91582.41
2023-05-10T04:29:46.994Z,91580.81
2023-05-10T04:32:13.676Z,91578.00
2023-05-10T04:34:40.446Z,91587.25
2023-05-10T04:37:08.509Z,91576.44
2023-05-10T04:39:36.192Z,91581.13
2023-05-10T04:42:04.292Z,91579.94
2023-05-10T04:44:31.067Z,91582.28
2023-05-10T04:46:57.733Z,91587.63
2023-05-10T04:49:24.484Z,91587.72
2023-05-10T04:51:51.230Z,91593.00
2023-05-10T04:54:17.852Z,91594.81
2023-05-10T04:56:44.492Z,91594.63
2023-05-10T04:59:11.601Z,91595.44
2023-05-10T05:01:38.315Z,91599.31
2023-05-10T05:04:06.436Z,91601.84
2023-05-10T05:06:33.082Z,91594.38
2023-05-10T05:08:59.707Z,91597.88
2023-05-10T05:11:26.924Z,91598.81
2023-05-10T05:13:53.627Z,91598.50
2023-05-10T05:16:20.429Z,91596.81
2023-05-10T05:18:47.208Z,91602.06
2023-05-10T05:21:18.460Z,91597.53
2023-05-10T05:23:45.743Z,91603.91
2023-05-10T05:26:12.659Z,91599.53
2023-05-10T05:28:39.447Z,91601.13
2023-05-10T05:31:07.129Z,91608.19
2023-05-10T05:33:34.527Z,91612.16
2023-05-10T05:36:06.092Z,91607.28
2023-05-10T05:38:32.892Z,91609.81
2023-05-10T05:40:59.579Z,91618.22
2023-05-10T05:43:26.302Z,91609.19
2023-05-10T05:45:59.002Z,91612.06
2023-05-10T05:48:25.894Z,91620.25
2023-05-10T05:50:57.581Z,91616.88
2023-05-10T05:53:24.869Z,91613.09
2023-05-10T05:55:55.881Z,91621.66
2023-05-10T05:58:26.463Z,91618.16
2023-05-10T06:00:53.725Z,91615.09
2023-05-10T06:03:20.515Z,91620.78
2023-05-10T06:05:47.629Z,91621.09
2023-05-10T06:08:14.266Z,91628.25
2023-05-10T06:10:40.917Z,91626.13
2023-05-10T06:13:07.669Z,91627.25
2023-05-10T06:15:34.379Z,91635.38
2023-05-10T06:18:02.263Z,91636.75
2023-05-10T06:20:28.956Z,91638.63
2023-05-10T06:22:55.750Z,91640.28
2023-05-10T06:25:22.384Z,91635.53
2023-05-10T06:27:52.617Z,91633.59
2023-05-10T06:30:20.492Z,91639.03
2023-05-10T06:32:47.381Z,91639.38
2023-05-10T06:35:14.150Z,91633.75
2023-05-10T06:37:40.966Z,91636.66
2023-05-10T06:40:08.597Z,91642.16
2023-05-10T06:42:35.439Z,91642.94
2023-05-10T06:45:02.228Z,91635.44
2023-05-10T06:47:28.966Z,91635.69
2023-05-10T06:49:55.897Z,91635.13
2023-05-10T06:52:22.642Z,91637.50
2023-05-10T06:54:49.365Z,91645.69
2023-05-10T06:57:27.616Z,91637.19
2023-05-10T06:59:59.323Z,91643.75
2023-05-10T07:02:26.136Z,91642.44
2023-05-10T07:04:53.566Z,91641.13
2023-05-10T07:07:20.380Z,91636.66
2023-05-10T07:09:47.287Z,91639.72
2023-05-10T07:12:15.330Z,91632.22
2023-05-10T07:14:42.689Z,91639.31
2023-05-10T07:17:09.633Z,91635.00
2023-05-10T07:19:37.056Z,91648.38
2023-05-10T07:22:04.058Z,91653.22
2023-05-10T07:24:34.196Z,91645.66
2023-05-10T07:27:01.087Z,91645.91
2023-05-10T07:29:27.889Z,91644.97
2023-05-10T07:31:57.096Z,91641.38
2023-05-10T07:34:25.635Z,91648.97
2023-05-10T07:36:52.811Z,91656.13
2023-05-10T07:39:26.571Z,91653.59
2023-05-10T07:41:55.003Z,91659.72
2023-05-10T07:44:24.018Z,91658.13
2023-05-10T07:46:51.866Z,91657.88
2023-05-10T07:49:18.657Z,91657.69
2023-05-10T07:51:45.338Z,91657.94
2023-05-10T07:54:12.382Z,91661.59
2023-05-10T07:56:41.082Z,91663.41
2023-05-10T07:59:09.359Z,91660.38
2023-05-10T08:01:37.013Z,91660.84
2023-05-10T08:04:03.831Z,91664.03
2023-05-10T08:06:31.338Z,91665.31
2023-05-10T08:08:58.762Z,91670.25
2023-05-10T08:11:25.984Z,91662.81
2023-05-10T08:13:53.037Z,91667.78
2023-05-10T08:16:19.959Z,91682.50
2023-05-10T08:18:48.201Z,91679.13
2023-05-10T08:21:15.952Z,91676.41
2023-05-10T08:23:44.758Z,91675.72
2023-05-10T08:26:11.928Z,91680.84
2023-05-10T08:28:38.885Z,91683.69
2023-05-10T08:31:06.646Z,91680.75
2023-05-10T08:33:33.731Z,91682.50
2023-05-10T08:36:00.544Z,91681.44
2023-05-10T08:38:27.200Z,91672.59
2023-05-10T08:40:57.698Z,91689.44
2023-05-10T08:43:31.265Z,91679.09
2023-05-10T08:46:01.699Z,91681.69
2023-05-10T08:48:30.238Z,91679.16
2023-05-10T08:51:00.413Z,91676.00
2023-05-10T08:53:28.303Z,91679.94
2023-05-10T08:55:55.472Z,91678.59
2023-05-10T08:58:22.462Z,91673.00
2023-05-10T09:00:54.071Z,91681.38
2023-05-10T09:03:20.903Z,91673.56
2023-05-10T09:05:48.046Z,91671.25
2023-05-10T09:08:17.396Z,91674.69
2023-05-10T09:10:48.973Z,91674.69
2023-05-10T09:13:16.750Z,91671.75
2023-05-10T09:15:46.168Z,91669.50
2023-05-10T09:18:13.463Z,91660.16
2023-05-10T09:20:41.227Z,91666.44
2023-05-10T09:23:08.167Z,91664.03
2023-05-10T09:25:35.128Z,91660.75
2023-05-10T09:28:02.244Z,91657.75
2023-05-10T09:30:32.441Z,91651.47
2023-05-10T09:33:00.733Z,91662.13
2023-05-10T09:35:30.274Z,91646.44
2023-05-10T09:37:59.297Z,91640.59
2023-05-10T09:40:27.551Z,91640.59
2023-05-10T09:43:01.493Z,91641.88
2023-05-10T09:45:32.605Z,91643.22
2023-05-10T09:48:00.507Z,91636.06
2023-05-10T09:50:27.801Z,91630.44
2023-05-10T09:53:02.482Z,91621.78
2023-05-10T09:55:46.940Z,91625.53
2023-05-10T09:58:15.131Z,91630.03
2023-05-10T10:00:48.871Z,91623.25
2023-05-10T10:03:21.163Z,91625.06
2023-05-10T10:05:49.021Z,91622.34
2023-05-10T10:08:17.672Z,91614.53
2023-05-10T10:10:47.605Z,91617.22
2023-05-10T10:13:15.182Z,91614.19
2023-05-10T10:15:43.382Z,91614.19
2023-05-10T10:18:14.461Z,91610.97
2023-05-10T10:20:44.834Z,91587.34
2023-05-10T10:23:11.516Z,91592.50
2023-05-10T10:25:39.375Z,91598.28
2023-05-10T10:28:23.060Z,91605.16
2023-05-10T10:30:52.913Z,91603.56
2023-05-10T10:33:27.699Z,91602.81
2023-05-10T10:35:57.027Z,91609.50
2023-05-10T10:38:23.955Z,91601.56
2023-05-10T10:41:03.791Z,91595.31
2023-05-10T10:43:31.341Z,91597.78
2023-05-10T10:46:15.614Z,91588.28
2023-05-10T10:48:48.154Z,91590.44
2023-05-10T10:51:15.291Z,91588.28
2023-05-10T10:53:42.255Z,91596.69
2023-05-10T10:56:11.395Z,91585.09
2023-05-10T10:58:39.590Z,91584.38
2023-05-10T11:01:19.956Z,91581.63
2023-05-10T11:04:19.513Z,91581.31
2023-05-10T11:06:46.324Z,91577.16
2023-05-10T11:09:13.984Z,91575.19
2023-05-10T11:11:53.082Z,91586.06
2023-05-10T11:14:22.959Z,91583.25
2023-05-10T11:16:49.741Z,91581.81
2023-05-10T11:19:17.884Z,91574.16
2023-05-10T11:22:06.415Z,91572.22
2023-05-10T11:24:34.503Z,91566.56
2023-05-10T11:27:01.918Z,91568.34
2023-05-10T11:29:28.625Z,91575.56
2023-05-10T11:31:58.891Z,91570.66
2023-05-10T11:34:31.413Z,91564.59
2023-05-10T11:36:59.095Z,91571.66
2023-05-10T11:39:30.180Z,91564.44
2023-05-10T11:41:57.752Z,91563.75
2023-05-10T11:44:24.778Z,91565.66
2023-05-10T11:46:51.696Z,91566.50
2023-05-10T11:49:19.015Z,91561.63
2023-05-10T11:51:45.728Z,91566.50
2023-05-10T11:54:12.564Z,91559.47
2023-05-10T11:56:40.546Z,91564.25
2023-05-10T11:59:09.084Z,91559.78
2023-05-10T12:01:36.383Z,91566.59
2023-05-10T12:04:03.298Z,91563.59
2023-05-10T12:06:38.259Z,91563.59
2023-05-10T12:09:09.217Z,91571.00
2023-05-10T12:11:42.541Z,91564.97
2023-05-10T12:14:10.941Z,91568.13
2023-05-10T12:16:37.702Z,91567.75
2023-05-10T12:19:04.502Z,91566.72
2023-05-10T12:21:32.465Z,91573.81
2023-05-10T12:24:06.365Z,91565.09
2023-05-10T12:26:33.694Z,91561.38
2023-05-10T12:29:27.083Z,91559.00
2023-05-10T12:31:58.839Z,91542.34
2023-05-10T12:34:31.082Z,91543.34
2023-05-10T12:36:58.110Z,91542.34
2023-05-10T12:39:26.005Z,91533.63
2023-05-10T12:41:53.858Z,91537.88
2023-05-10T12:44:20.596Z,91530.06
2023-05-10T12:46:47.230Z,91538.41
2023-05-10T12:49:14.069Z,91532.59
2023-05-10T12:51:40.874Z,91535.78
2023-05-10T12:54:08.036Z,91538.63
2023-05-10T12:56:34.742Z,91543.97
2023-05-10T12:59:01.494Z,91541.09
2023-05-10T13:01:31.845Z,91542.69
2023-05-10T13:03:58.613Z,91541.56
2023-05-10T13:06:25.297Z,91534.38
2023-05-10T13:08:52.820Z,91534.00
2023-05-10T13:11:20.904Z,91539.22
2023-05-10T13:13:47.636Z,91535.09
2023-05-10T13:16:14.359Z,91540.34
2023-05-10T13:18:41.065Z,91530.94
2023-05-10T13:21:08.524Z,91531.34
2023-05-10T13:23:35.652Z,91522.66
2023-05-10T13:26:02.349Z,91533.47
2023-05-10T13:28:29.024Z,91532.03
2023-05-10T13:30:55.750Z,91535.34
2023-05-10T13:33:22.482Z,91530.13
2023-05-10T13:35:49.447Z,91531.25
2023-05-10T13:38:16.075Z,91538.41
2023-05-10T13:40:42.781Z,91537.28
2023-05-10T13:43:09.459Z,91535.72
2023-05-10T13:45:36.079Z,91545.78
2023-05-10T13:48:02.811Z,91539.03
2023-05-10T13:50:29.567Z,91541.22
2023-05-10T13:52:56.541Z,91537.09
2023-05-10T13:58:07.289Z,91534.38
2023-05-10T14:00:34.003Z,91533.28
2023-05-10T14:03:01.631Z,91529.81
2023-05-10T14:05:28.585Z,91534.53
2023-05-10T14:07:55.758Z,91529.28
2023-05-10T14:10:22.379Z,91527.06
2023-05-10T14:12:49.003Z,91530.53
2023-05-10T14:15:16.077Z,91538.38
2023-05-10T14:17:43.024Z,91530.78
2023-05-10T14:20:10.160Z,91543.56
2023-05-10T14:22:36.843Z,91542.38
2023-05-10T14:25:03.751Z,91546.69
2023-05-10T14:27:31.298Z,91546.00
2023-05-10T14:29:57.961Z,91545.59
2023-05-10T14:32:24.666Z,91545.66
2023-05-10T14:34:51.401Z,91542.63
2023-05-10T14:37:18.042Z,91542.63
2023-05-10T14:39:44.741Z,91548.44
2023-05-10T14:42:11.595Z,91542.06
2023-05-10T14:44:38.355Z,91542.38
2023-05-10T14:47:05.043Z,91551.81
2023-05-10T14:49:31.835Z,91551.56
2023-05-10T14:51:58.582Z,91547.72
2023-05-10T14:54:25.179Z,91559.75
2023-05-10T14:56:52.314Z,91553.06
2023-05-10T14:59:18.987Z,91550.78
2023-05-10T15:01:46.334Z,91553.72
2023-05-10T15:04:14.527Z,91555.53
2023-05-10T15:06:42.041Z,91561.97
2023-05-10T15:09:08.786Z,91563.75
2023-05-10T15:11:35.701Z,91564.41
2023-05-10T15:14:03.100Z,91560.22
2023-05-10T15:16:29.869Z,91567.47
2023-05-10T15:18:56.684Z,91560.91
2023-05-10T15:21:23.379Z,91562.88
2023-05-10T15:23:50.067Z,91570.44
2023-05-10T15:26:16.744Z,91567.25
2023-05-10T15:28:43.954Z,91568.44
2023-05-10T15:31:11.598Z,91567.31
2023-05-10T15:33:39.629Z,91559.41
2023-05-10T15:36:06.532Z,91571.06
2023-05-10T15:38:33.120Z,91561.84
2023-05-10T15:40:59.716Z,91564.25
2023-05-10T15:43:26.511Z,91563.84
2023-05-10T15:45:53.179Z,91560.00
2023-05-10T15:48:19.874Z,91561.41
2023-05-10T15:50:46.644Z,91564.06
2023-05-10T15:53:13.404Z,91570.78
2023-05-10T15:55:40.277Z,91557.22
2023-05-10T15:58:06.997Z,91568.41
2023-05-10T16:00:33.778Z,91569.22
2023-05-10T16:03:00.886Z,91571.63
2023-05-10T16:05:31.970Z,91570.09
2023-05-10T16:07:58.657Z,91576.06
2023-05-10T16:10:25.345Z,91582.03
2023-05-10T16:12:52.057Z,91579.63
2023-05-10T16:15:19.004Z,91574.97
2023-05-10T16:17:46.042Z,91581.03
2023-05-10T16:20:12.890Z,91577.22
2023-05-10T16:22:39.688Z,91585.22
2023-05-10T16:25:06.718Z,91576.31
2023-05-10T16:27:33.832Z,91583.06
2023-05-10T16:30:00.622Z,91581.59
2023-05-10T16:32:27.324Z,91585.06
2023-05-10T16:34:54.082Z,91592.50
2023-05-10T16:37:20.986Z,91583.31
2023-05-10T16:39:48.092Z,91588.44
2023-05-10T16:42:14.780Z,91594.22
2023-05-10T16:44:41.423Z,91586.50
2023-05-10T16:47:08.549Z,91594.41
2023-05-10T16:52:03.479Z,91609.00
2023-05-10T16:54:30.193Z,91616.50
2023-05-10T16:56:56.951Z,91605.78
2023-05-10T16:59:23.646Z,91609.28
2023-05-10T17:01:50.458Z,91605.34
2023-05-10T17:04:17.901Z,91610.53
2023-05-10T17:06:44.607Z,91617.13
2023-05-10T17:09:12.232Z,91613.63
2023-05-10T17:11:38.895Z,91611.84
2023-05-10T17:14:05.548Z,91615.06
2023-05-10T17:16:32.209Z,91619.06
2023-05-10T17:18:59.067Z,91614.28
2023-05-10T17:21:26.256Z,91610.59
2023-05-10T17:23:52.975Z,91618.16
2023-05-10T17:26:19.812Z,91619.41
2023-05-10T17:28:46.485Z,91619.28
2023-05-10T17:31:13.224Z,91625.59
2023-05-10T17:33:40.118Z,91624.75
2023-05-10T17:36:07.082Z,91632.22
2023-05-10T17:38:33.773Z,91629.22
2023-05-10T17:41:00.836Z,91636.06
2023-05-10T17:43:27.574Z,91632.22
2023-05-10T17:45:54.246Z,91631.53
2023-05-10T17:48:21.009Z,91630.59
2023-05-10T17:50:54.349Z,91631.06
2023-05-10T17:53:21.045Z,91634.66
2023-05-10T17:55:47.797Z,91631.53
2023-05-10T17:58:14.474Z,91630.00
2023-05-10T18:00:41.192Z,91637.91
2023-05-10T18:03:07.964Z,91643.13
2023-05-10T18:05:38.892Z,91647.66
2023-05-10T18:08:07.352Z,91638.31
2023-05-10T18:10:34.053Z,91642.69
2023-05-10T18:13:02.448Z,91645.47
2023-05-10T18:15:29.293Z,91646.56
2023-05-10T18:17:56.827Z,91647.41
2023-05-10T18:20:23.914Z,91655.25
2023-05-10T18:22:50.759Z,91648.09
2023-05-10T18:25:17.840Z,91643.50
2023-05-10T18:27:44.819Z,91650.38
2023-05-10T18:30:12.664Z,91652.91
2023-05-10T18:32:39.821Z,91656.97
2023-05-10T18:35:08.195Z,91657.81
2023-05-10T18:37:35.867Z,91657.81
2023-05-10T18:40:02.814Z,91646.81
2023-05-10T18:42:29.822Z,91658.94
2023-05-10T18:44:56.494Z,91654.59
2023-05-10T18:47:23.253Z,91656.78
2023-05-10T18:49:50.007Z,91657.50
2023-05-10T18:52:17.110Z,91663.41
2023-05-10T18:54:43.850Z,91660.91
2023-05-10T18:57:12.516Z,91677.38
2023-05-10T18:59:39.310Z,91671.78
2023-05-10T19:02:06.072Z,91670.56
2023-05-10T19:04:32.843Z,91676.19
2023-05-10T19:07:02.058Z,91663.94
2023-05-10T19:09:29.118Z,91667.53
2023-05-10T19:11:56.086Z,91671.25
2023-05-10T19:14:23.010Z,91675.53
2023-05-10T19:16:52.260Z,91675.59
2023-05-10T19:19:19.795Z,91682.19
2023-05-10T19:21:46.785Z,91672.22
2023-05-10T19:24:13.434Z,91662.72
2023-05-10T19:26:40.409Z,91670.00
2023-05-10T19:29:07.780Z,91672.50
2023-05-10T19:31:35.397Z,91668.84
2023-05-10T19:34:05.920Z,91663.53
2023-05-10T19:36:34.451Z,91661.47
2023-05-10T19:39:01.529Z,91670.38
2023-05-10T19:41:28.666Z,91669.16
2023-05-10T19:43:55.310Z,91669.88
2023-05-10T19:46:22.249Z,91668.22
2023-05-10T19:48:48.996Z,91677.63
2023-05-10T19:51:15.785Z,91668.47
2023-05-10T19:53:45.127Z,91673.03
2023-05-10T19:56:12.741Z,91670.00
2023-05-10T19:58:39.825Z,91671.66
2023-05-10T20:01:07.842Z,91664.78
2023-05-10T20:03:36.092Z,91666.00
2023-05-10T20:06:04.045Z,91660.22
2023-05-10T20:08:31.090Z,91663.53
2023-05-10T20:10:59.173Z,91658.50
2023-05-10T20:13:26.010Z,91658.69
2023-05-10T20:15:56.233Z,91657.75
2023-05-10T20:18:23.268Z,91661.16
2023-05-10T20:20:55.305Z,91647.13
2023-05-10T20:23:22.356Z,91646.41
2023-05-10T20:25:49.465Z,91653.31
2023-05-10T20:28:22.983Z,91658.38
2023-05-10T20:30:53.242Z,91650.38
2023-05-10T20:33:20.235Z,91648.88
2023-05-10T20:35:47.052Z,91642.13
2023-05-10T20:38:13.862Z,91646.66
2023-05-10T20:40:40.496Z,91644.38
2023-05-10T20:43:07.221Z,91636.19
2023-05-10T20:45:34.728Z,91633.44
2023-05-10T20:48:02.105Z,91624.66
2023-05-10T20:50:28.842Z,91633.50
2023-05-10T20:52:55.521Z,91625.34
2023-05-10T20:55:22.201Z,91638.72
2023-05-10T20:57:48.898Z,91633.06
2023-05-10T21:00:16.162Z,91635.84
2023-05-10T21:02:45.255Z,91629.66
2023-05-10T21:05:12.389Z,91623.31
2023-05-10T21:07:39.484Z,91628.03
2023-05-10T21:10:11.191Z,91619.63
2023-05-10T21:12:37.975Z,91625.13
2023-05-10T21:15:05.006Z,91619.97
2023-05-10T21:17:31.687Z,91613.91
2023-05-10T21:19:58.454Z,91617.69
2023-05-10T21:22:25.195Z,91615.22
2023-05-10T21:24:51.890Z,91610.66
2023-05-10T21:27:19.502Z,91602.59
2023-05-10T21:29:46.186Z,91600.25
2023-05-10T21:32:12.882Z,91603.28
2023-05-10T21:34:39.716Z,91600.69
2023-05-10T21:37:06.493Z,91591.19
2023-05-10T21:39:33.111Z,91595.09
2023-05-10T21:42:00.423Z,91589.31
2023-05-10T21:44:27.070Z,91594.94
2023-05-10T21:46:53.699Z,91600.03
2023-05-10T21:49:20.327Z,91584.75
2023-05-10T21:51:47.382Z,91599.25
2023-05-10T21:54:14.356Z,91599.81
2023-05-10T21:56:41.067Z,91603.72
2023-05-10T21:59:07.754Z,91607.91
2023-05-10T22:01:34.497Z,91604.78
2023-05-10T22:04:01.254Z,91604.16
2023-05-10T22:06:27.890Z,91607.25
2023-05-10T22:08:54.605Z,91609.44
2023-05-10T22:11:21.911Z,91610.19
2023-05-10T22:13:48.525Z,91609.94
2023-05-10T22:16:15.672Z,91603.50
2023-05-10T22:18:43.449Z,91600.50
2023-05-10T22:21:10.600Z,91599.44
2023-05-10T22:23:37.821Z,91608.81
2023-05-10T22:26:04.930Z,91607.91
2023-05-10T22:28:31.541Z,91608.47
2023-05-10T22:30:58.214Z,91608.34
2023-05-10T22:33:24.987Z,91601.59
2023-05-10T22:35:51.684Z,91615.63
2023-05-10T22:38:18.310Z,91612.34
2023-05-10T22:40:45.010Z,91604.28
2023-05-10T22:43:11.960Z,91605.66
2023-05-10T22:45:38.753Z,91599.72
2023-05-10T22:48:05.657Z,91598.44
2023-05-10T22:50:32.338Z,91602.53
2023-05-10T22:52:58.954Z,91604.19
2023-05-10T22:55:25.767Z,91615.94
2023-05-10T22:57:53.814Z,91608.28
2023-05-10T23:00:20.920Z,91607.69
2023-05-10T23:02:47.876Z,91604.47
2023-05-10T23:05:14.577Z,91597.31
2023-05-10T23:07:41.245Z,91606.31
2023-05-10T23:10:08.397Z,91596.63
2023-05-10T23:12:35.046Z,91596.34
2023-05-10T23:15:02.147Z,91593.09
2023-05-10T23:17:28.798Z,91603.28
2023-05-10T23:19:55.655Z,91592.78
2023-05-10T23:22:22.292Z,91597.25
2023-05-10T23:24:49.081Z,91603.25
2023-05-10T23:27:16.565Z,91598.28
2023-05-10T23:29:43.279Z,91597.00
2023-05-10T23:32:10.139Z,91596.06
2023-05-10T23:34:36.956Z,91585.72
2023-05-10T23:37:03.657Z,91598.94
2023-05-10T23:39:30.420Z,91595.25
2023-05-10T23:41:57.081Z,91603.81
2023-05-10T23:44:23.756Z,91601.81
2023-05-10T23:46:50.681Z,91598.34
2023-05-10T23:49:17.474Z,91594.03
2023-05-10T23:51:44.139Z,91594.63
2023-05-10T23:54:10.846Z,91593.94
2023-05-10T23:56:37.589Z,91595.00
2023-05-10T23:59:05.985Z,91594.91
